createdAt,value
2024-01-20T00:00:14.613Z,36.43
2024-01-20T00:01:14.720Z,36.33
2024-01-20T00:02:14.721Z,36.25
2024-01-20T00:03:14.626Z,36.43
2024-01-20T00:04:14.699Z,36.21
2024-01-20T00:05:14.672Z,36.28
2024-01-20T00:06:14.631Z,36.17
2024-01-20T00:07:14.644Z,36.21
2024-01-20T00:08:14.655Z,36.09
2024-01-20T00:09:14.620Z,36.06
2024-01-20T00:10:14.754Z,36.01
2024-01-20T00:11:14.650Z,36.25
2024-01-20T00:12:14.636Z,36.22
2024-01-20T00:13:14.648Z,36.22
2024-01-20T00:14:14.684Z,36.03
2024-01-20T00:15:14.629Z,36.07
2024-01-20T00:16:14.648Z,36.09
2024-01-20T00:17:23.365Z,35.93
2024-01-20T00:18:15.770Z,36.03
2024-01-20T00:19:14.749Z,36.19
2024-01-20T00:20:14.728Z,35.99
2024-01-20T00:21:14.613Z,35.87
2024-01-20T00:22:14.661Z,35.98
2024-01-20T00:23:14.690Z,36.06
2024-01-20T00:24:14.628Z,35.99
2024-01-20T00:25:14.644Z,35.97
2024-01-20T00:26:14.695Z,35.95
2024-01-20T00:27:14.641Z,35.73
2024-01-20T00:28:14.634Z,35.89
2024-01-20T00:29:14.688Z,35.90
2024-01-20T00:30:14.643Z,35.85
2024-01-20T00:31:14.625Z,35.88
2024-01-20T00:32:14.719Z,35.72
2024-01-20T00:33:14.786Z,35.67
2024-01-20T00:34:14.680Z,35.69
2024-01-20T00:35:14.705Z,35.83
2024-01-20T00:36:14.644Z,35.56
2024-01-20T00:37:14.665Z,35.60
2024-01-20T00:38:14.741Z,35.66
2024-01-20T00:39:14.654Z,35.73
2024-01-20T00:40:14.648Z,35.87
2024-01-20T00:41:15.356Z,35.49
2024-01-20T00:42:14.667Z,35.44
2024-01-20T00:43:14.666Z,35.42
2024-01-20T00:44:14.727Z,35.62
2024-01-20T00:45:14.664Z,35.57
2024-01-20T00:46:14.655Z,35.44
2024-01-20T00:47:14.840Z,35.45
2024-01-20T00:48:14.790Z,35.50
2024-01-20T00:49:14.753Z,35.42
2024-01-20T00:50:14.689Z,35.41
2024-01-20T00:51:14.686Z,35.39
2024-01-20T00:52:14.670Z,35.39
2024-01-20T00:53:14.773Z,35.29
2024-01-20T00:54:14.741Z,35.37
2024-01-20T00:55:14.758Z,35.22
2024-01-20T00:56:14.836Z,35.13
2024-01-20T00:57:14.770Z,35.49
2024-01-20T00:58:14.788Z,35.28
2024-01-20T00:59:14.851Z,35.12
2024-01-20T01:00:14.847Z,35.28
2024-01-20T01:01:14.901Z,35.16
2024-01-20T01:02:14.884Z,35.07
2024-01-20T01:03:14.870Z,35.21
2024-01-20T01:04:14.888Z,35.28
2024-01-20T01:05:14.944Z,35.38
2024-01-20T01:06:14.924Z,35.13
2024-01-20T01:07:14.911Z,35.40
2024-01-20T01:08:15.053Z,34.98
2024-01-20T01:09:14.965Z,35.19
2024-01-20T01:10:14.965Z,34.91
2024-01-20T01:11:15.071Z,35.14
2024-01-20T01:12:14.989Z,34.96
2024-01-20T01:13:15.001Z,34.95
2024-01-20T01:14:15.236Z,34.94
2024-01-20T01:15:15.061Z,35.12
2024-01-20T01:16:15.083Z,34.90
2024-01-20T01:17:15.141Z,34.91
2024-01-20T01:18:15.179Z,34.96
2024-01-20T01:19:15.123Z,34.88
2024-01-20T01:20:15.212Z,34.99
2024-01-20T01:21:15.160Z,34.84
2024-01-20T01:22:15.171Z,34.92
2024-01-20T01:23:15.223Z,34.91
2024-01-20T01:24:15.251Z,34.88
2024-01-20T01:25:15.222Z,34.78
2024-01-20T01:26:15.266Z,34.68
2024-01-20T01:27:15.283Z,34.73
2024-01-20T01:28:15.289Z,34.68
2024-01-20T01:29:15.393Z,34.86
2024-01-20T01:30:15.331Z,34.68
2024-01-20T01:31:15.306Z,34.78
2024-01-20T01:32:15.394Z,35.03
2024-01-20T01:33:15.404Z,34.57
2024-01-20T01:34:15.472Z,34.59
2024-01-20T01:35:15.618Z,34.55
2024-01-20T01:36:15.442Z,34.48
2024-01-20T01:37:15.440Z,34.82
2024-01-20T01:38:15.553Z,34.55
2024-01-20T01:39:15.472Z,34.57
2024-01-20T01:40:15.506Z,34.52
2024-01-20T01:41:15.638Z,34.51
2024-01-20T01:42:15.533Z,34.63
2024-01-20T01:43:15.556Z,34.34
2024-01-20T01:44:15.594Z,34.44
2024-01-20T01:45:15.606Z,34.75
2024-01-20T01:46:15.629Z,34.51
2024-01-20T01:47:15.653Z,34.43
2024-01-20T01:48:15.769Z,34.47
2024-01-20T01:49:15.674Z,34.59
2024-01-20T01:50:15.699Z,34.24
2024-01-20T01:51:15.719Z,34.24
2024-01-20T01:52:15.765Z,34.51
2024-01-20T01:53:15.761Z,34.38
2024-01-20T01:54:15.837Z,34.16
2024-01-20T01:55:15.818Z,34.46
2024-01-20T01:56:15.843Z,34.47
2024-01-20T01:57:15.927Z,34.21
2024-01-20T01:58:15.906Z,34.30
2024-01-20T01:59:15.950Z,34.32
2024-01-20T02:00:15.949Z,34.16
2024-01-20T02:01:16.011Z,34.30
2024-01-20T02:02:16.085Z,34.05
2024-01-20T02:03:16.136Z,34.26
2024-01-20T02:04:16.124Z,34.07
2024-01-20T02:05:16.068Z,34.11
2024-01-20T02:06:16.139Z,34.12
2024-01-20T02:07:16.163Z,34.16
2024-01-20T02:08:16.245Z,34.10
2024-01-20T02:09:16.168Z,34.03
2024-01-20T02:10:16.207Z,34.06
2024-01-20T02:11:16.211Z,34.23
2024-01-20T02:12:16.297Z,33.94
2024-01-20T02:13:16.298Z,34.01
2024-01-20T02:14:16.304Z,34.23
2024-01-20T02:15:18.394Z,33.81
2024-01-20T02:16:16.357Z,34.13
2024-01-20T02:17:16.362Z,34.14
2024-01-20T02:18:16.474Z,33.98
2024-01-20T02:19:16.491Z,33.69
2024-01-20T02:20:16.433Z,33.95
2024-01-20T02:21:16.502Z,33.78
2024-01-20T02:22:16.501Z,33.92
2024-01-20T02:23:16.512Z,33.83
2024-01-20T02:24:16.603Z,33.91
2024-01-20T02:25:16.557Z,33.79
2024-01-20T02:26:16.579Z,33.78
2024-01-20T02:27:16.668Z,33.70
2024-01-20T02:28:16.597Z,33.77
2024-01-20T02:29:16.628Z,33.66
2024-01-20T02:30:16.694Z,33.74
2024-01-20T02:31:16.685Z,33.53
2024-01-20T02:32:16.724Z,33.70
2024-01-20T02:33:17.039Z,33.78
2024-01-20T02:34:16.906Z,33.65
2024-01-20T02:35:16.775Z,33.60
2024-01-20T02:36:16.846Z,33.67
2024-01-20T02:37:16.830Z,33.70
2024-01-20T02:38:16.853Z,33.78
2024-01-20T02:39:16.954Z,33.56
2024-01-20T02:40:16.938Z,33.71
2024-01-20T02:41:16.958Z,33.59
2024-01-20T02:42:17.045Z,33.74
2024-01-20T02:43:17.002Z,33.54
2024-01-20T02:44:17.071Z,33.55
2024-01-20T02:45:17.079Z,33.75
2024-01-20T02:46:17.126Z,33.36
2024-01-20T02:47:17.136Z,33.62
2024-01-20T02:48:19.099Z,33.53
2024-01-20T02:49:17.326Z,33.51
2024-01-20T02:50:17.220Z,33.41
2024-01-20T02:51:17.291Z,33.41
2024-01-20T02:52:17.317Z,33.48
2024-01-20T02:53:17.365Z,33.49
2024-01-20T02:54:17.419Z,33.33
2024-01-20T02:55:17.402Z,33.13
2024-01-20T02:56:17.429Z,33.35
2024-01-20T02:57:17.502Z,33.34
2024-01-20T02:58:17.482Z,33.03
2024-01-20T02:59:17.516Z,33.23
2024-01-20T03:00:17.586Z,33.49
2024-01-20T03:01:17.630Z,33.10
2024-01-20T03:02:17.602Z,33.44
2024-01-20T03:03:17.736Z,33.45
2024-01-20T03:04:17.728Z,33.20
2024-01-20T03:05:17.766Z,33.27
2024-01-20T03:06:17.783Z,33.37
2024-01-20T03:07:17.789Z,33.13
2024-01-20T03:08:17.809Z,33.22
2024-01-20T03:09:17.868Z,32.89
2024-01-20T03:10:17.896Z,32.99
2024-01-20T03:11:17.893Z,33.09
2024-01-20T03:12:17.905Z,33.06
2024-01-20T03:13:17.933Z,32.86
2024-01-20T03:14:17.999Z,33.01
2024-01-20T03:15:18.054Z,32.86
2024-01-20T03:16:18.050Z,32.85
2024-01-20T03:17:18.075Z,33.20
2024-01-20T03:18:18.191Z,33.11
2024-01-20T03:19:18.175Z,32.89
2024-01-20T03:20:18.145Z,32.97
2024-01-20T03:21:18.216Z,33.07
2024-01-20T03:22:18.220Z,33.02
2024-01-20T03:23:18.256Z,32.64
2024-01-20T03:24:18.307Z,32.65
2024-01-20T03:25:18.292Z,32.86
2024-01-20T03:26:18.321Z,32.74
2024-01-20T03:27:18.388Z,32.87
2024-01-20T03:28:18.380Z,32.93
2024-01-20T03:29:18.427Z,32.82
2024-01-20T03:30:18.497Z,32.65
2024-01-20T03:31:18.493Z,32.64
2024-01-20T03:32:18.558Z,32.78
2024-01-20T03:33:18.645Z,32.86
2024-01-20T03:34:18.654Z,32.72
2024-01-20T03:35:18.608Z,32.91
2024-01-20T03:36:18.715Z,32.76
2024-01-20T03:37:18.657Z,32.75
2024-01-20T03:38:18.722Z,32.59
2024-01-20T03:39:18.779Z,32.71
2024-01-20T03:40:18.757Z,32.50
2024-01-20T03:41:18.784Z,32.85
2024-01-20T03:42:18.898Z,32.78
2024-01-20T03:43:18.859Z,32.61
2024-01-20T03:44:18.907Z,32.37
2024-01-20T03:45:19.005Z,32.47
2024-01-20T03:46:18.946Z,32.33
2024-01-20T03:47:19.007Z,32.59
2024-01-20T03:48:19.177Z,32.52
2024-01-20T03:49:19.144Z,32.63
2024-01-20T03:50:19.300Z,32.68
2024-01-20T03:51:19.172Z,32.66
2024-01-20T03:52:19.159Z,32.29
2024-01-20T03:53:19.180Z,32.37
2024-01-20T03:54:19.251Z,32.30
2024-01-20T03:55:19.243Z,32.59
2024-01-20T03:56:19.299Z,32.20
2024-01-20T03:57:19.325Z,32.22
2024-01-20T03:58:19.325Z,32.27
2024-01-20T03:59:19.376Z,32.47
2024-01-20T04:00:19.467Z,32.48
2024-01-20T04:01:19.454Z,32.48
2024-01-20T04:02:19.488Z,32.40
2024-01-20T04:03:19.622Z,32.24
2024-01-20T04:04:19.573Z,32.24
2024-01-20T04:05:19.596Z,32.20
2024-01-20T04:06:19.652Z,32.34
2024-01-20T04:07:19.619Z,32.26
2024-01-20T04:08:19.674Z,32.32
2024-01-20T04:09:19.731Z,32.23
2024-01-20T04:10:19.722Z,32.13
2024-01-20T04:11:19.770Z,31.99
2024-01-20T04:12:19.809Z,31.91
2024-01-20T04:13:19.846Z,31.82
2024-01-20T04:14:19.845Z,31.71
2024-01-20T04:15:19.910Z,31.85
2024-01-20T04:16:19.929Z,31.85
2024-01-20T04:17:19.931Z,31.83
2024-01-20T04:18:27.270Z,32.14
2024-01-20T04:19:27.187Z,32.20
2024-01-20T04:20:27.111Z,31.88
2024-01-20T04:21:27.166Z,32.04
2024-01-20T04:22:27.124Z,32.10
2024-01-20T04:23:27.127Z,31.98
2024-01-20T04:24:27.156Z,31.79
2024-01-20T04:25:27.108Z,32.03
2024-01-20T04:26:27.116Z,31.96
2024-01-20T04:27:27.175Z,31.93
2024-01-20T04:28:27.139Z,31.98
2024-01-20T04:29:27.137Z,31.79
2024-01-20T04:30:27.173Z,31.77
2024-01-20T04:31:34.330Z,32.11
2024-01-20T04:32:34.333Z,31.94
2024-01-20T04:33:34.418Z,31.93
2024-01-20T04:34:34.349Z,31.94
2024-01-20T04:35:34.328Z,32.04
2024-01-20T04:36:34.378Z,31.96
2024-01-20T04:37:34.350Z,31.97
2024-01-20T04:38:34.309Z,31.89
2024-01-20T04:39:34.317Z,31.97
2024-01-20T04:40:34.314Z,31.89
2024-01-20T04:41:34.325Z,31.75
2024-01-20T04:42:34.402Z,31.61
2024-01-20T04:43:34.307Z,31.67
2024-01-20T04:44:34.303Z,31.53
2024-01-20T04:45:34.507Z,31.81
2024-01-20T04:46:34.305Z,31.51
2024-01-20T04:47:34.372Z,31.79
2024-01-20T04:48:34.473Z,31.51
2024-01-20T04:49:34.497Z,31.73
2024-01-20T04:50:34.351Z,31.65
2024-01-20T04:51:34.423Z,31.67
2024-01-20T04:52:34.339Z,31.73
2024-01-20T04:53:34.336Z,31.61
2024-01-20T04:54:34.413Z,31.86
2024-01-20T04:55:34.339Z,31.76
2024-01-20T04:56:34.363Z,31.61
2024-01-20T04:57:34.376Z,31.75
2024-01-20T04:58:34.356Z,31.55
2024-01-20T04:59:34.354Z,31.70
2024-01-20T05:00:34.387Z,31.55
2024-01-20T05:01:34.389Z,31.62
2024-01-20T05:02:34.318Z,31.52
2024-01-20T05:03:34.466Z,31.50
2024-01-20T05:04:34.553Z,31.61
2024-01-20T05:05:34.368Z,31.61
2024-01-20T05:06:34.426Z,31.49
2024-01-20T05:07:34.346Z,31.41
2024-01-20T05:08:34.342Z,31.41
2024-01-20T05:09:34.386Z,31.40
2024-01-20T05:10:34.339Z,31.37
2024-01-20T05:11:34.380Z,31.39
2024-01-20T05:12:34.439Z,31.33
2024-01-20T05:13:34.369Z,31.27
2024-01-20T05:14:34.385Z,31.24
2024-01-20T05:15:34.513Z,31.13
2024-01-20T05:16:34.393Z,31.16
2024-01-20T05:17:34.403Z,31.32
2024-01-20T05:18:34.545Z,31.21
2024-01-20T05:19:34.520Z,31.16
2024-01-20T05:20:34.484Z,31.14
2024-01-20T05:21:34.477Z,31.17
2024-01-20T05:22:34.379Z,31.21
2024-01-20T05:23:34.393Z,31.17
2024-01-20T05:24:34.503Z,30.97
2024-01-20T05:25:34.429Z,31.28
2024-01-20T05:26:34.503Z,31.29
2024-01-20T05:27:34.556Z,31.09
2024-01-20T05:28:34.622Z,31.12
2024-01-20T05:29:34.619Z,31.09
2024-01-20T05:30:34.640Z,31.06
2024-01-20T05:31:34.664Z,31.10
2024-01-20T05:32:34.725Z,31.07
2024-01-20T05:33:34.790Z,31.17
2024-01-20T05:34:34.985Z,31.06
2024-01-20T05:35:34.795Z,30.99
2024-01-20T05:36:34.896Z,31.03
2024-01-20T05:37:34.882Z,31.14
2024-01-20T05:38:34.927Z,30.82
2024-01-20T05:39:35.002Z,30.97
2024-01-20T05:40:34.975Z,31.02
2024-01-20T05:41:35.037Z,30.93
2024-01-20T05:42:35.152Z,30.82
2024-01-20T05:43:35.131Z,30.76
2024-01-20T05:44:35.124Z,30.88
2024-01-20T05:45:35.241Z,30.86
2024-01-20T05:46:35.206Z,31.04
2024-01-20T05:47:35.230Z,30.93
2024-01-20T05:48:35.398Z,30.95
2024-01-20T05:49:35.413Z,30.94
2024-01-20T05:50:35.340Z,30.85
2024-01-20T05:51:35.426Z,30.89
2024-01-20T05:52:35.404Z,30.80
2024-01-20T05:53:35.455Z,30.93
2024-01-20T05:54:35.639Z,30.93
2024-01-20T05:55:35.535Z,30.68
2024-01-20T05:56:35.566Z,30.61
2024-01-20T05:57:35.649Z,30.82
2024-01-20T05:58:35.627Z,30.69
2024-01-20T05:59:35.660Z,30.79
2024-01-20T06:00:35.760Z,30.66
2024-01-20T06:01:35.729Z,30.52
2024-01-20T06:02:35.795Z,30.57
2024-01-20T06:03:35.910Z,30.79
2024-01-20T06:04:35.868Z,30.64
2024-01-20T06:05:35.869Z,30.80
2024-01-20T06:06:35.907Z,30.50
2024-01-20T06:07:35.933Z,30.58
2024-01-20T06:08:35.964Z,30.62
2024-01-20T06:09:36.059Z,30.90
2024-01-20T06:10:36.070Z,30.69
2024-01-20T06:11:36.091Z,30.69
2024-01-20T06:12:36.154Z,30.74
2024-01-20T06:13:36.188Z,30.66
2024-01-20T06:14:36.216Z,30.58
2024-01-20T06:15:36.222Z,30.61
2024-01-20T06:16:36.247Z,30.59
2024-01-20T06:17:36.393Z,30.73
2024-01-20T06:18:36.386Z,30.64
2024-01-20T06:19:36.390Z,30.69
2024-01-20T06:20:36.412Z,30.57
2024-01-20T06:21:36.471Z,30.56
2024-01-20T06:22:36.454Z,30.60
2024-01-20T06:23:36.445Z,30.55
2024-01-20T06:24:36.451Z,30.54
2024-01-20T06:25:36.439Z,30.58
2024-01-20T06:26:36.454Z,30.52
2024-01-20T06:27:36.470Z,30.47
2024-01-20T06:28:36.462Z,30.44
2024-01-20T06:29:36.461Z,30.46
2024-01-20T06:30:36.570Z,30.44
2024-01-20T06:31:36.455Z,30.42
2024-01-20T06:32:36.494Z,30.38
2024-01-20T06:33:36.541Z,30.28
2024-01-20T06:34:36.553Z,30.37
2024-01-20T06:35:36.445Z,30.32
2024-01-20T06:36:36.514Z,30.35
2024-01-20T06:37:36.485Z,30.36
2024-01-20T06:38:36.485Z,30.36
2024-01-20T06:39:36.553Z,30.39
2024-01-20T06:40:36.535Z,30.31
2024-01-20T06:41:36.605Z,30.31
2024-01-20T06:42:36.744Z,30.40
2024-01-20T06:43:36.681Z,30.31
2024-01-20T06:44:36.695Z,30.27
2024-01-20T06:45:36.777Z,30.36
2024-01-20T06:46:36.758Z,30.34
2024-01-20T06:47:36.866Z,30.39
2024-01-20T06:48:36.913Z,30.31
2024-01-20T06:49:36.913Z,30.34
2024-01-20T06:50:36.883Z,30.28
2024-01-20T06:51:36.952Z,30.24
2024-01-20T06:52:36.975Z,30.25
2024-01-20T06:53:37.017Z,30.07
2024-01-20T06:54:37.071Z,30.18
2024-01-20T06:55:37.063Z,30.07
2024-01-20T06:56:37.122Z,29.97
2024-01-20T06:57:37.268Z,30.02
2024-01-20T06:58:37.158Z,30.00
2024-01-20T06:59:37.218Z,29.95
2024-01-20T07:00:37.396Z,30.09
2024-01-20T07:01:37.297Z,30.13
2024-01-20T07:02:37.334Z,30.04
2024-01-20T07:03:37.417Z,29.97
2024-01-20T07:04:37.420Z,30.08
2024-01-20T07:05:37.506Z,30.08
2024-01-20T07:06:37.493Z,30.00
2024-01-20T07:07:37.516Z,29.92
2024-01-20T07:08:37.569Z,29.94
2024-01-20T07:09:37.640Z,29.97
2024-01-20T07:10:37.638Z,29.96
2024-01-20T07:11:37.643Z,30.04
2024-01-20T07:12:37.905Z,30.04
2024-01-20T07:13:37.759Z,29.96
2024-01-20T07:14:37.769Z,30.03
2024-01-20T07:15:37.878Z,29.96
2024-01-20T07:16:37.834Z,29.88
2024-01-20T07:17:37.956Z,29.88
2024-01-20T07:18:38.030Z,29.83
2024-01-20T07:19:38.009Z,29.96
2024-01-20T07:20:38.005Z,29.95
2024-01-20T07:21:38.041Z,29.87
2024-01-20T07:22:38.536Z,29.96
2024-01-20T07:23:38.109Z,29.98
2024-01-20T07:24:38.166Z,29.93
2024-01-20T07:25:38.164Z,29.72
2024-01-20T07:26:38.229Z,29.89
2024-01-20T07:27:38.269Z,29.93
2024-01-20T07:28:38.280Z,29.96
2024-01-20T07:29:38.291Z,29.89
2024-01-20T07:30:38.349Z,29.83
2024-01-20T07:31:38.378Z,29.77
2024-01-20T07:32:38.409Z,29.77
2024-01-20T07:33:38.485Z,29.86
2024-01-20T07:34:38.536Z,29.85
2024-01-20T07:35:38.541Z,29.80
2024-01-20T07:36:38.705Z,29.79
2024-01-20T07:37:38.602Z,29.75
2024-01-20T07:38:38.616Z,29.78
2024-01-20T07:39:38.761Z,29.82
2024-01-20T07:40:38.677Z,29.72
2024-01-20T07:41:38.710Z,29.75
2024-01-20T07:42:38.767Z,29.75
2024-01-20T07:43:38.778Z,29.68
2024-01-20T07:44:38.828Z,29.73
2024-01-20T07:45:38.953Z,29.67
2024-01-20T07:46:38.885Z,29.71
2024-01-20T07:47:38.943Z,29.65
2024-01-20T07:48:39.047Z,29.71
2024-01-20T07:49:39.063Z,29.65
2024-01-20T07:50:39.006Z,29.69
2024-01-20T07:51:39.103Z,29.72
2024-01-20T07:52:40.813Z,29.68
2024-01-20T07:53:39.124Z,29.69
2024-01-20T07:54:39.278Z,29.65
2024-01-20T07:55:39.209Z,29.65
2024-01-20T07:56:39.225Z,29.65
2024-01-20T07:57:39.331Z,29.60
2024-01-20T07:58:39.315Z,29.62
2024-01-20T07:59:39.368Z,29.60
2024-01-20T08:00:39.548Z,29.62
2024-01-20T08:01:39.426Z,29.54
2024-01-20T08:02:39.469Z,29.60
2024-01-20T08:03:39.561Z,29.58
2024-01-20T08:04:39.594Z,29.54
2024-01-20T08:05:39.572Z,29.50
2024-01-20T08:06:39.768Z,29.54
2024-01-20T08:07:39.622Z,29.50
2024-01-20T08:08:39.656Z,29.52
2024-01-20T08:09:39.833Z,29.48
2024-01-20T08:10:39.715Z,29.48
2024-01-20T08:11:39.760Z,29.42
2024-01-20T08:12:39.769Z,29.39
2024-01-20T08:13:39.858Z,29.38
2024-01-20T08:14:39.841Z,29.32
2024-01-20T08:15:40.053Z,29.27
2024-01-20T08:16:39.939Z,29.25
2024-01-20T08:17:41.527Z,29.14
2024-01-20T08:18:40.122Z,29.19
2024-01-20T08:19:40.006Z,29.21
2024-01-20T08:20:39.970Z,29.23
2024-01-20T08:21:39.947Z,29.17
2024-01-20T08:22:39.979Z,29.15
2024-01-20T08:23:39.980Z,29.04
2024-01-20T08:24:39.995Z,29.00
2024-01-20T08:25:39.981Z,29.03
2024-01-20T08:26:39.939Z,29.01
2024-01-20T08:27:40.036Z,28.93
2024-01-20T08:28:39.955Z,28.92
2024-01-20T08:29:39.956Z,28.85
2024-01-20T08:30:40.086Z,28.96
2024-01-20T08:31:39.955Z,28.91
2024-01-20T08:32:40.061Z,28.83
2024-01-20T08:33:40.203Z,28.78
2024-01-20T08:34:40.047Z,28.70
2024-01-20T08:35:39.958Z,28.66
2024-01-20T08:36:40.018Z,28.66
2024-01-20T08:37:39.980Z,28.63
2024-01-20T08:38:39.959Z,28.65
2024-01-20T08:39:39.995Z,28.60
2024-01-20T08:40:39.978Z,28.57
2024-01-20T08:41:39.964Z,28.56
2024-01-20T08:42:40.005Z,28.58
2024-01-20T08:43:40.003Z,28.62
2024-01-20T08:44:39.973Z,28.72
2024-01-20T08:45:40.063Z,28.72
2024-01-20T08:46:39.977Z,28.71
2024-01-20T08:47:39.969Z,28.63
2024-01-20T08:48:40.126Z,28.63
2024-01-20T08:49:39.992Z,28.66
2024-01-20T08:50:39.992Z,28.63
2024-01-20T08:51:40.007Z,28.65
2024-01-20T08:52:40.034Z,28.64
2024-01-20T08:53:39.989Z,28.66
2024-01-20T08:54:40.105Z,28.58
2024-01-20T08:55:39.985Z,28.58
2024-01-20T08:56:40.024Z,28.53
2024-01-20T08:57:40.029Z,28.49
2024-01-20T08:58:40.044Z,28.52
2024-01-20T08:59:40.014Z,28.46
2024-01-20T09:00:40.032Z,28.40
2024-01-20T09:01:40.033Z,28.31
2024-01-20T09:02:40.065Z,28.36
2024-01-20T09:03:40.141Z,28.29
2024-01-20T09:04:40.002Z,28.33
2024-01-20T09:05:40.107Z,28.25
2024-01-20T09:06:40.071Z,28.24
2024-01-20T09:07:40.003Z,28.28
2024-01-20T09:08:40.031Z,28.22
2024-01-20T09:09:40.065Z,28.23
2024-01-20T09:10:40.024Z,28.21
2024-01-20T09:11:40.027Z,28.21
2024-01-20T09:12:40.078Z,28.17
2024-01-20T09:13:40.028Z,28.20
2024-01-20T09:14:40.035Z,28.13
2024-01-20T09:15:40.099Z,28.09
2024-01-20T09:16:40.042Z,28.14
2024-01-20T09:17:40.065Z,28.04
2024-01-20T09:18:40.297Z,28.09
2024-01-20T09:19:40.232Z,28.07
2024-01-20T09:20:40.191Z,28.01
2024-01-20T09:21:40.212Z,28.01
2024-01-20T09:22:40.202Z,27.97
2024-01-20T09:23:40.241Z,27.93
2024-01-20T09:24:40.447Z,27.93
2024-01-20T09:25:40.328Z,27.83
2024-01-20T09:26:40.347Z,27.82
2024-01-20T09:27:40.452Z,27.81
2024-01-20T09:28:40.431Z,27.69
2024-01-20T09:29:42.646Z,27.73
2024-01-20T09:30:40.630Z,27.75
2024-01-20T09:31:40.431Z,27.69
2024-01-20T09:32:40.468Z,27.66
2024-01-20T09:33:40.543Z,27.67
2024-01-20T09:34:40.505Z,27.74
2024-01-20T09:35:40.415Z,27.64
2024-01-20T09:36:40.490Z,27.62
2024-01-20T09:37:40.462Z,27.59
2024-01-20T09:38:40.416Z,27.54
2024-01-20T09:39:40.542Z,27.53
2024-01-20T09:40:40.436Z,27.57
2024-01-20T09:41:40.429Z,27.47
2024-01-20T09:42:40.585Z,27.40
2024-01-20T09:43:40.500Z,27.44
2024-01-20T09:44:40.408Z,27.44
2024-01-20T09:45:40.468Z,27.34
2024-01-20T09:46:40.424Z,27.37
2024-01-20T09:47:40.508Z,27.30
2024-01-20T09:48:40.599Z,27.33
2024-01-20T09:49:40.667Z,27.25
2024-01-20T09:50:40.423Z,27.23
2024-01-20T09:51:40.491Z,27.20
2024-01-20T09:52:40.410Z,27.27
2024-01-20T09:53:40.445Z,27.19
2024-01-20T09:54:40.512Z,27.19
2024-01-20T09:55:40.442Z,27.07
2024-01-20T09:56:40.449Z,27.07
2024-01-20T09:57:40.471Z,27.03
2024-01-20T09:58:40.434Z,27.05
2024-01-20T09:59:40.444Z,26.99
2024-01-20T10:00:40.445Z,26.97
2024-01-20T10:01:40.445Z,26.93
2024-01-20T10:02:40.401Z,26.93
2024-01-20T10:03:40.496Z,26.87
2024-01-20T10:04:40.526Z,26.81
2024-01-20T10:05:40.466Z,26.75
2024-01-20T10:06:40.565Z,26.72
2024-01-20T10:07:40.459Z,26.61
2024-01-20T10:08:40.451Z,26.55
2024-01-20T10:09:40.490Z,26.44
2024-01-20T10:10:40.463Z,26.38
2024-01-20T10:11:40.483Z,26.28
2024-01-20T10:12:40.470Z,26.15
2024-01-20T10:13:40.452Z,26.11
2024-01-20T10:14:40.460Z,26.17
2024-01-20T10:15:40.553Z,25.99
2024-01-20T10:16:40.410Z,25.91
2024-01-20T10:17:40.476Z,25.87
2024-01-20T10:18:40.463Z,25.83
2024-01-20T10:19:40.500Z,25.73
2024-01-20T10:20:40.432Z,25.66
2024-01-20T10:21:40.522Z,25.72
2024-01-20T10:22:40.436Z,25.60
2024-01-20T10:23:40.446Z,25.64
2024-01-20T10:24:40.484Z,25.47
2024-01-20T10:25:40.452Z,25.46
2024-01-20T10:26:40.442Z,25.42
2024-01-20T10:27:40.542Z,25.43
2024-01-20T10:28:40.447Z,25.36
2024-01-20T10:29:40.469Z,25.36
2024-01-20T10:30:40.565Z,25.33
2024-01-20T10:31:40.475Z,25.25
2024-01-20T10:33:40.583Z,25.29
2024-01-20T10:34:40.593Z,25.25
2024-01-20T10:35:40.540Z,25.21
2024-01-20T10:36:40.539Z,25.23
2024-01-20T10:37:40.475Z,25.20
2024-01-20T10:38:40.499Z,25.14
2024-01-20T10:39:40.513Z,25.13
2024-01-20T10:40:42.550Z,25.05
2024-01-20T10:41:40.476Z,25.07
2024-01-20T10:42:40.534Z,25.05
2024-01-20T10:43:40.549Z,25.03
2024-01-20T10:44:40.496Z,25.07
2024-01-20T10:45:40.507Z,25.03
2024-01-20T10:46:40.519Z,25.00
2024-01-20T10:47:40.555Z,24.94
2024-01-20T10:48:40.641Z,25.01
2024-01-20T10:49:40.787Z,24.97
2024-01-20T10:50:40.501Z,25.00
2024-01-20T10:51:40.599Z,24.91
2024-01-20T10:52:40.535Z,24.93
2024-01-20T10:53:40.501Z,24.90
2024-01-20T10:54:40.502Z,24.87
2024-01-20T10:55:40.534Z,24.87
2024-01-20T10:56:40.521Z,24.93
2024-01-20T10:57:40.527Z,24.83
2024-01-20T10:58:40.505Z,24.85
2024-01-20T10:59:40.542Z,24.83
2024-01-20T11:00:40.624Z,24.86
2024-01-20T11:01:40.512Z,24.81
2024-01-20T11:02:40.523Z,24.82
2024-01-20T11:03:40.603Z,24.84
2024-01-20T11:04:41.637Z,24.74
2024-01-20T11:05:40.546Z,24.78
2024-01-20T11:06:40.573Z,24.76
2024-01-20T11:07:40.531Z,24.73
2024-01-20T11:08:40.556Z,24.73
2024-01-20T11:09:40.560Z,24.75
2024-01-20T11:10:40.561Z,24.72
2024-01-20T11:11:40.618Z,24.83
2024-01-20T11:12:40.550Z,24.74
2024-01-20T11:13:40.534Z,24.88
2024-01-20T11:14:40.556Z,24.84
2024-01-20T11:15:40.666Z,24.81
2024-01-20T11:16:40.563Z,24.83
2024-01-20T11:17:40.619Z,24.85
2024-01-20T11:18:40.621Z,24.98
2024-01-20T11:19:40.631Z,24.88
2024-01-20T11:20:40.576Z,24.94
2024-01-20T11:21:40.814Z,24.95
2024-01-20T11:22:40.557Z,24.95
2024-01-20T11:23:40.580Z,24.95
2024-01-20T11:24:40.616Z,24.99
2024-01-20T11:25:40.565Z,24.97
2024-01-20T11:26:40.583Z,24.92
2024-01-20T11:27:40.620Z,24.93
2024-01-20T11:28:40.592Z,24.90
2024-01-20T11:29:40.579Z,24.92
2024-01-20T11:30:40.600Z,24.89
2024-01-20T11:31:40.581Z,24.83
2024-01-20T11:32:40.642Z,24.83
2024-01-20T11:33:40.660Z,24.88
2024-01-20T11:34:40.664Z,24.82
2024-01-20T11:35:40.622Z,24.77
2024-01-20T11:36:40.580Z,24.84
2024-01-20T11:37:40.562Z,24.82
2024-01-20T11:38:40.598Z,24.69
2024-01-20T11:39:40.705Z,24.71
2024-01-20T11:40:40.622Z,24.68
2024-01-20T11:41:40.606Z,24.65
2024-01-20T11:42:40.596Z,24.55
2024-01-20T11:43:40.578Z,24.56
2024-01-20T11:44:40.634Z,24.49
2024-01-20T11:45:40.643Z,24.51
2024-01-20T11:46:40.607Z,24.52
2024-01-20T11:47:40.681Z,24.41
2024-01-20T11:48:40.880Z,24.44
2024-01-20T11:49:40.869Z,24.34
2024-01-20T11:50:40.764Z,24.41
2024-01-20T11:51:40.816Z,24.40
2024-01-20T11:52:40.801Z,24.43
2024-01-20T11:53:40.840Z,24.34
2024-01-20T11:54:40.891Z,24.34
2024-01-20T11:55:41.015Z,24.35
2024-01-20T11:56:40.932Z,24.33
2024-01-20T11:57:41.068Z,24.32
2024-01-20T11:58:41.071Z,24.30
2024-01-20T11:59:41.129Z,24.37
2024-01-20T12:00:41.253Z,24.35
2024-01-20T12:01:41.274Z,24.35
2024-01-20T12:02:41.252Z,24.31
2024-01-20T12:03:41.381Z,24.35
2024-01-20T12:04:41.414Z,24.33
2024-01-20T12:05:41.645Z,24.36
2024-01-20T12:06:41.611Z,24.34
2024-01-20T12:07:41.575Z,24.34
2024-01-20T12:08:41.628Z,24.39
2024-01-20T12:09:41.779Z,24.25
2024-01-20T12:10:41.749Z,24.32
2024-01-20T12:11:41.842Z,24.37
2024-01-20T12:12:41.950Z,24.39
2024-01-20T12:13:41.967Z,24.32
2024-01-20T12:14:42.068Z,24.35
2024-01-20T12:15:42.134Z,24.33
2024-01-20T12:16:42.164Z,24.37
2024-01-20T12:17:42.356Z,24.27
2024-01-20T12:18:42.485Z,24.24
2024-01-20T12:19:42.759Z,24.28
2024-01-20T12:20:42.474Z,24.27
2024-01-20T12:21:42.556Z,24.34
2024-01-20T12:22:42.583Z,24.30
2024-01-20T12:23:42.655Z,24.28
2024-01-20T12:24:42.717Z,24.28
2024-01-20T12:25:42.800Z,24.34
2024-01-20T12:26:42.882Z,24.33
2024-01-20T12:27:42.958Z,24.33
2024-01-20T12:28:43.006Z,24.27
2024-01-20T12:29:43.078Z,24.30
2024-01-20T12:30:43.180Z,24.33
2024-01-20T12:31:43.208Z,24.30
2024-01-20T12:32:44.218Z,24.29
2024-01-20T12:33:43.477Z,24.27
2024-01-20T12:34:43.400Z,24.30
2024-01-20T12:35:43.465Z,24.20
2024-01-20T12:36:43.568Z,24.23
2024-01-20T12:37:43.658Z,24.30
2024-01-20T12:38:43.677Z,24.30
2024-01-20T12:39:43.737Z,24.28
2024-01-20T12:40:43.789Z,24.25
2024-01-20T12:41:43.877Z,24.17
2024-01-20T12:42:44.209Z,24.18
2024-01-20T12:43:44.006Z,24.18
2024-01-20T12:44:44.115Z,24.19
2024-01-20T12:45:44.171Z,24.18
2024-01-20T12:46:44.204Z,24.17
2024-01-20T12:47:44.311Z,24.13
2024-01-20T12:48:44.506Z,24.11
2024-01-20T12:49:44.467Z,24.14
2024-01-20T12:50:44.450Z,24.05
2024-01-20T12:51:44.553Z,24.06
2024-01-20T12:52:44.579Z,24.06
2024-01-20T12:53:44.640Z,24.06